LFLB 181530Z AUTO 36008KT 330V040 9999 FEW052 OVC160 26/15 Q1011 TEMPO 2000 TSRA SCT015 BKN030CB

ElémentsDécodage
LFLB Station météo située sur l'aérodrome de CHAMBERY Aix-les-Bains
181530Z émis le 18 du mois à 15h30 UTC
AUTO Bulletin édité par un automate
36008KT vent du 360°, 08 noeuds
330V040 vent de direction variable entre 330° et 040°
9999 visibilité horizontale supérieure à 10 Km
FEW052 nuages rares (1/8 à 2/8) à 5200 pieds
OVC160 couverture nuageuse totale (8/8) à 16000 pieds
26/15 température 26°C, point de rosée 15°C
 soit une humidité relative de 51%
Q1011 la pression au niveau de la mer (QNH) est de 1011 hPa
TEMPO fluctuation temporaire prévue
2000 visibilité horizontale de 2000 mètres
TSRA pluie d'orage
SCT015 nuages épars (3/8 à 4/8) à 1500 pieds
BKN030CB nuages morcelés (5/8 à 7/8) à 3000 pieds
 présence de cumulonimbus